createdAt,value
2023-04-20T00:01:54.838Z,10.10
2023-04-20T00:04:24.901Z,10.30
2023-04-20T00:06:59.264Z,10.40
2023-04-20T00:09:29.966Z,10.60
2023-04-20T00:11:59.154Z,10.80
2023-04-20T00:14:32.007Z,11.00
2023-04-20T00:16:59.956Z,11.10
2023-04-20T00:19:28.310Z,11.40
2023-04-20T00:21:56.260Z,11.70
2023-04-20T00:24:24.125Z,11.80
2023-04-20T00:26:54.942Z,11.90
2023-04-20T00:29:24.195Z,11.80
2023-04-20T00:31:58.051Z,11.90
2023-04-20T00:34:26.024Z,11.90
2023-04-20T00:36:59.313Z,12.00
2023-04-20T00:39:30.312Z,12.10
2023-04-20T00:42:07.559Z,12.50
2023-04-20T00:44:39.630Z,12.60
2023-04-20T00:47:07.807Z,12.50
2023-04-20T00:49:40.775Z,12.40
2023-04-20T00:52:11.856Z,12.50
2023-04-20T00:54:40.692Z,12.40
2023-04-20T00:57:08.734Z,12.50
2023-04-20T00:59:43.890Z,12.80
2023-04-20T01:02:12.051Z,12.80
2023-04-20T01:04:47.714Z,12.60
2023-04-20T01:07:15.660Z,12.50
2023-04-20T01:09:51.978Z,12.30
2023-04-20T01:12:23.098Z,12.20
2023-04-20T01:14:52.669Z,12.40
2023-04-20T01:17:24.403Z,12.50
2023-04-20T01:20:04.910Z,12.50
2023-04-20T01:22:34.142Z,12.60
2023-04-20T01:25:05.753Z,12.60
2023-04-20T01:27:38.988Z,12.60
2023-04-20T01:30:08.146Z,12.70
2023-04-20T01:32:36.288Z,12.60
2023-04-20T01:35:08.248Z,12.80
2023-04-20T01:37:37.627Z,12.90
2023-04-20T01:40:06.622Z,12.70
2023-04-20T01:42:37.556Z,12.50
2023-04-20T01:45:06.778Z,12.30
2023-04-20T01:47:45.443Z,12.10
2023-04-20T01:50:16.485Z,11.90
2023-04-20T01:52:48.703Z,12.00
2023-04-20T01:55:17.475Z,12.20
2023-04-20T01:57:46.758Z,12.20
2023-04-20T02:00:14.970Z,12.20
2023-04-20T02:02:43.113Z,12.10
2023-04-20T02:05:11.452Z,12.00
2023-04-20T02:07:39.315Z,11.90
2023-04-20T02:10:09.608Z,11.80
2023-04-20T02:12:37.478Z,11.90
2023-04-20T02:15:06.090Z,12.00
2023-04-20T02:17:34.015Z,11.60
2023-04-20T02:20:01.905Z,11.40
2023-04-20T02:22:34.918Z,11.10
2023-04-20T02:25:08.063Z,11.10
2023-04-20T02:27:36.149Z,11.20
2023-04-20T02:30:08.307Z,10.90
2023-04-20T02:32:36.290Z,10.90
2023-04-20T02:35:04.986Z,11.00
2023-04-20T02:37:39.272Z,11.00
2023-04-20T02:40:11.822Z,10.90
2023-04-20T02:42:39.805Z,10.70
2023-04-20T02:45:08.868Z,10.60
2023-04-20T02:47:45.456Z,10.40
2023-04-20T02:50:13.601Z,10.40
2023-04-20T02:52:44.261Z,10.50
2023-04-20T02:55:13.501Z,10.20
2023-04-20T02:57:41.447Z,10.20
2023-04-20T03:00:10.313Z,10.10
2023-04-20T03:02:38.543Z,9.80
2023-04-20T03:05:09.798Z,9.60
2023-04-20T03:07:37.669Z,9.40
2023-04-20T03:10:09.875Z,9.50
2023-04-20T03:12:39.094Z,9.40
2023-04-20T03:15:11.611Z,9.30
2023-04-20T03:17:41.826Z,9.40
2023-04-20T03:20:16.470Z,9.40
2023-04-20T03:22:47.362Z,9.50
2023-04-20T03:25:15.314Z,9.40
2023-04-20T03:27:47.447Z,9.30
2023-04-20T03:30:15.917Z,9.10
2023-04-20T03:32:43.778Z,9.10
2023-04-20T03:35:11.743Z,9.10
2023-04-20T03:37:39.669Z,9.00
2023-04-20T03:40:09.378Z,8.90
2023-04-20T03:42:38.171Z,8.70
2023-04-20T03:45:08.689Z,8.80
2023-04-20T03:47:39.142Z,8.60
2023-04-20T03:50:10.644Z,8.60
2023-04-20T03:52:40.975Z,8.60
2023-04-20T03:55:11.980Z,8.50
2023-04-20T03:57:42.872Z,8.40
2023-04-20T04:00:13.926Z,8.50
2023-04-20T04:02:41.912Z,8.60
2023-04-20T04:05:10.159Z,8.50
2023-04-20T04:07:38.267Z,8.50
2023-04-20T04:10:06.990Z,8.40
2023-04-20T04:12:34.850Z,8.30
2023-04-20T04:15:02.783Z,8.30
2023-04-20T04:17:32.062Z,8.40
2023-04-20T04:19:59.997Z,8.60
2023-04-20T04:22:30.678Z,8.70
2023-04-20T04:24:58.548Z,8.70
2023-04-20T04:27:34.646Z,8.60
2023-04-20T04:30:03.075Z,8.40
2023-04-20T04:32:34.469Z,8.40
2023-04-20T04:35:05.884Z,8.40
2023-04-20T04:37:33.762Z,8.30
2023-04-20T04:40:03.790Z,8.30
2023-04-20T04:42:39.542Z,8.50
2023-04-20T04:45:10.194Z,8.50
2023-04-20T04:47:41.206Z,8.30
2023-04-20T04:50:10.488Z,8.50
2023-04-20T04:52:40.765Z,8.50
2023-04-20T04:55:12.149Z,8.50
2023-04-20T04:57:43.005Z,8.50
2023-04-20T05:00:12.577Z,8.50
2023-04-20T05:02:45.021Z,8.70
2023-04-20T05:05:12.961Z,8.70
2023-04-20T05:07:48.251Z,8.80
2023-04-20T05:10:16.126Z,8.60
2023-04-20T05:12:46.461Z,8.40
2023-04-20T05:15:14.367Z,8.50
2023-04-20T05:17:42.258Z,8.50
2023-04-20T05:20:26.802Z,8.10
2023-04-20T05:22:57.497Z,8.10
2023-04-20T05:25:25.606Z,8.10
2023-04-20T05:27:53.512Z,8.10
2023-04-20T05:30:22.216Z,8.10
2023-04-20T05:32:55.558Z,8.30
2023-04-20T05:35:27.804Z,8.20
2023-04-20T05:37:55.693Z,8.20
2023-04-20T05:40:26.901Z,8.40
2023-04-20T05:43:00.921Z,8.40
2023-04-20T05:45:33.051Z,8.40
2023-04-20T05:48:10.597Z,8.40
2023-04-20T05:50:40.291Z,8.20
2023-04-20T05:53:08.149Z,8.10
2023-04-20T05:55:39.035Z,8.00
2023-04-20T05:58:06.938Z,7.70
2023-04-20T06:00:35.580Z,7.50
2023-04-20T06:03:04.167Z,7.50
2023-04-20T06:05:32.288Z,7.40
2023-04-20T06:08:09.832Z,7.40
2023-04-20T06:10:37.736Z,7.30
2023-04-20T06:13:10.253Z,7.30
2023-04-20T06:15:43.428Z,7.40
2023-04-20T06:18:11.469Z,7.60
2023-04-20T06:20:40.364Z,7.60
2023-04-20T06:23:18.253Z,7.60
2023-04-20T06:25:52.006Z,7.60
2023-04-20T06:28:19.877Z,7.50
2023-04-20T06:30:47.729Z,7.50
2023-04-20T06:33:18.893Z,7.60
2023-04-20T06:35:46.805Z,7.50
2023-04-20T06:38:16.025Z,7.60
2023-04-20T06:40:46.995Z,7.50
2023-04-20T06:46:05.532Z,7.80
2023-04-20T06:48:43.244Z,7.60
2023-04-20T06:51:13.216Z,7.50
2023-04-20T06:53:42.429Z,7.70
2023-04-20T06:56:11.357Z,7.70
2023-04-20T06:58:39.277Z,7.70
2023-04-20T07:01:07.173Z,7.50
2023-04-20T07:03:35.244Z,7.60
2023-04-20T07:06:03.292Z,7.40
2023-04-20T07:08:39.629Z,7.50
2023-04-20T07:11:09.135Z,7.50
2023-04-20T07:13:37.025Z,7.60
2023-04-20T07:16:05.152Z,7.70
2023-04-20T07:18:34.751Z,7.70
2023-04-20T07:21:03.400Z,7.70
2023-04-20T07:23:31.279Z,7.70
2023-04-20T07:25:59.565Z,7.70
2023-04-20T07:28:28.930Z,7.70
2023-04-20T07:30:56.774Z,7.70
2023-04-20T07:33:27.702Z,7.70
2023-04-20T07:35:55.580Z,7.80
2023-04-20T07:38:26.680Z,7.70
2023-04-20T07:41:02.313Z,7.60
2023-04-20T07:43:31.551Z,7.80
2023-04-20T07:46:05.683Z,8.10
2023-04-20T07:48:37.029Z,8.20
2023-04-20T07:51:07.430Z,8.20
2023-04-20T07:53:41.346Z,8.10
2023-04-20T07:56:12.369Z,7.90
2023-04-20T07:58:41.612Z,7.90
2023-04-20T08:01:12.510Z,7.80
2023-04-20T08:03:49.258Z,7.80
2023-04-20T08:06:17.345Z,7.70
2023-04-20T08:08:50.247Z,7.70
2023-04-20T08:11:18.144Z,7.70
2023-04-20T08:14:05.092Z,7.60
2023-04-20T08:16:41.918Z,7.80
2023-04-20T08:19:16.074Z,7.80
2023-04-20T08:21:43.998Z,7.60
2023-04-20T08:24:14.840Z,7.60
2023-04-20T08:27:04.827Z,7.50
2023-04-20T08:29:34.031Z,7.50
2023-04-20T08:32:01.975Z,7.50
2023-04-20T08:34:32.343Z,7.50
2023-04-20T08:37:12.476Z,7.40
2023-04-20T08:39:40.468Z,7.50
2023-04-20T08:42:08.411Z,7.30
2023-04-20T08:44:37.743Z,7.30
2023-04-20T08:47:05.798Z,7.10
2023-04-20T08:49:45.315Z,7.00
2023-04-20T08:52:13.333Z,7.20
2023-04-20T08:55:07.272Z,7.30
2023-04-20T08:57:38.270Z,7.50
2023-04-20T09:00:14.034Z,7.60
2023-04-20T09:02:54.817Z,7.90
2023-04-20T09:05:29.862Z,7.90
2023-04-20T09:07:59.788Z,8.00
2023-04-20T09:10:39.940Z,7.90
2023-04-20T09:13:26.040Z,7.80
2023-04-20T09:15:58.336Z,7.70
2023-04-20T09:18:26.233Z,7.80
2023-04-20T09:20:54.099Z,7.70
2023-04-20T09:23:30.597Z,7.70
2023-04-20T09:25:58.455Z,7.80
2023-04-20T09:28:39.295Z,7.90
2023-04-20T09:31:18.910Z,7.90
2023-04-20T09:34:00.664Z,7.80
2023-04-20T09:36:38.763Z,7.90
2023-04-20T09:39:09.864Z,8.00
2023-04-20T09:41:40.647Z,7.80
2023-04-20T09:44:09.244Z,7.90
2023-04-20T09:46:40.418Z,7.90
2023-04-20T09:49:13.941Z,7.90
2023-04-20T09:51:46.035Z,7.70
2023-04-20T09:54:15.859Z,7.70
2023-04-20T09:56:47.753Z,7.70
2023-04-20T09:59:20.960Z,7.70
2023-04-20T10:01:56.257Z,7.90
2023-04-20T10:04:27.123Z,8.10
2023-04-20T10:06:57.831Z,8.20
2023-04-20T10:09:27.121Z,8.20
2023-04-20T10:12:08.058Z,8.20
2023-04-20T10:14:36.545Z,8.20
2023-04-20T10:17:11.362Z,8.20
2023-04-20T10:19:43.704Z,8.20
2023-04-20T10:22:29.110Z,8.10
2023-04-20T10:24:57.004Z,8.10
2023-04-20T10:27:28.069Z,8.00
2023-04-20T10:29:55.940Z,8.20
2023-04-20T10:32:39.784Z,8.40
2023-04-20T10:35:16.092Z,8.50
2023-04-20T10:37:51.059Z,8.50
2023-04-20T10:40:25.833Z,8.70
2023-04-20T10:42:53.761Z,8.70
2023-04-20T10:45:21.975Z,8.70
2023-04-20T10:47:54.838Z,8.70
2023-04-20T10:50:23.385Z,8.70
2023-04-20T10:53:19.174Z,8.70
2023-04-20T10:55:47.494Z,8.70
2023-04-20T10:58:25.511Z,8.70
2023-04-20T11:01:03.753Z,8.80
2023-04-20T11:03:35.593Z,8.90
2023-04-20T11:06:09.430Z,8.90
2023-04-20T11:08:42.169Z,8.90
2023-04-20T11:11:20.789Z,9.10
2023-04-20T11:13:49.020Z,9.20
2023-04-20T11:16:20.773Z,9.20
2023-04-20T11:18:58.093Z,9.10
2023-04-20T11:21:50.800Z,9.20
2023-04-20T11:24:26.309Z,9.30
2023-04-20T11:27:05.365Z,9.40
2023-04-20T11:29:42.513Z,9.50
2023-04-20T11:32:20.320Z,9.70
2023-04-20T11:35:06.561Z,9.70
2023-04-20T11:37:48.820Z,9.80
2023-04-20T11:40:19.615Z,9.90
2023-04-20T11:42:47.581Z,10.00
2023-04-20T11:45:18.806Z,10.00
2023-04-20T11:47:47.178Z,10.00
2023-04-20T11:50:16.482Z,10.00
2023-04-20T11:52:50.220Z,9.90
2023-04-20T11:55:21.042Z,9.80
2023-04-20T11:57:50.007Z,9.90
2023-04-20T12:00:19.307Z,10.00
2023-04-20T12:02:50.384Z,10.20
2023-04-20T12:05:19.749Z,10.30
2023-04-20T12:07:50.630Z,10.30
2023-04-20T12:10:21.697Z,10.40
2023-04-20T12:12:53.399Z,10.50
2023-04-20T12:15:21.378Z,10.50
2023-04-20T12:17:49.266Z,10.60
2023-04-20T12:20:21.516Z,10.60
2023-04-20T12:22:49.399Z,10.40
2023-04-20T12:25:17.224Z,10.50
2023-04-20T12:27:45.144Z,10.70
2023-04-20T12:30:13.974Z,10.80
2023-04-20T12:32:41.853Z,10.80
2023-04-20T12:35:10.198Z,10.90
2023-04-20T12:37:42.320Z,10.90
2023-04-20T12:40:10.941Z,10.90
2023-04-20T12:42:41.578Z,10.90
2023-04-20T12:45:14.998Z,10.60
2023-04-20T12:47:42.893Z,10.70
2023-04-20T12:50:11.279Z,10.70
2023-04-20T12:52:39.540Z,10.50
2023-04-20T12:55:09.798Z,10.50
2023-04-20T12:57:43.666Z,10.50
2023-04-20T13:00:14.548Z,10.60
2023-04-20T13:02:42.854Z,10.50
2023-04-20T13:05:17.267Z,10.50
2023-04-20T13:07:45.268Z,10.60
2023-04-20T13:10:14.529Z,10.60
2023-04-20T13:12:45.280Z,10.60
2023-04-20T13:15:13.310Z,10.70
2023-04-20T13:17:47.563Z,10.70
2023-04-20T13:20:15.696Z,10.80
2023-04-20T13:22:56.796Z,10.80
2023-04-20T13:25:32.704Z,10.80
2023-04-20T13:28:02.557Z,10.80
2023-04-20T13:30:33.791Z,10.70
2023-04-20T13:33:04.691Z,10.60
2023-04-20T13:35:32.546Z,10.60
2023-04-20T13:38:03.822Z,10.60
2023-04-20T13:40:48.757Z,10.60
2023-04-20T13:43:22.384Z,10.60
2023-04-20T13:45:52.265Z,10.80
2023-04-20T13:48:22.828Z,10.90
2023-04-20T13:50:51.122Z,11.00
2023-04-20T13:53:18.983Z,11.00
2023-04-20T13:55:48.221Z,11.10
2023-04-20T13:58:22.023Z,11.20
2023-04-20T14:00:53.014Z,11.20
2023-04-20T14:03:27.004Z,11.20
2023-04-20T14:05:57.826Z,11.10
2023-04-20T14:08:28.971Z,11.10
2023-04-20T14:11:01.072Z,11.00
2023-04-20T14:13:31.997Z,11.10
2023-04-20T14:15:59.878Z,11.20
2023-04-20T14:18:33.308Z,11.30
2023-04-20T14:21:01.380Z,11.40
2023-04-20T14:23:35.239Z,11.40
2023-04-20T14:26:10.279Z,11.30
2023-04-20T14:28:38.194Z,11.20
2023-04-20T14:31:12.274Z,11.10
2023-04-20T14:33:41.456Z,11.20
2023-04-20T14:36:15.172Z,11.20
2023-04-20T14:38:43.081Z,11.20
2023-04-20T14:41:16.581Z,11.20
2023-04-20T14:43:44.439Z,11.10
2023-04-20T14:46:12.393Z,11.10
2023-04-20T14:48:40.294Z,11.30
2023-04-20T14:51:08.230Z,11.30
2023-04-20T14:53:47.887Z,11.40
2023-04-20T14:56:32.269Z,11.60
2023-04-20T14:59:02.678Z,11.80
2023-04-20T15:01:35.951Z,12.00
2023-04-20T15:04:13.204Z,11.90
2023-04-20T15:06:41.125Z,12.00
2023-04-20T15:09:09.013Z,12.10
2023-04-20T15:11:38.368Z,11.80
2023-04-20T15:14:09.331Z,11.60
2023-04-20T15:16:44.612Z,11.60
2023-04-20T15:19:18.662Z,11.60
2023-04-20T15:21:49.334Z,11.50
2023-04-20T15:24:26.112Z,11.60
2023-04-20T15:26:57.843Z,11.70
2023-04-20T15:29:31.765Z,11.80
2023-04-20T15:31:59.729Z,11.90
2023-04-20T15:34:30.470Z,12.00
2023-04-20T15:37:04.644Z,11.80
2023-04-20T15:39:35.666Z,11.60
2023-04-20T15:42:05.202Z,11.60
2023-04-20T15:44:36.204Z,11.50
2023-04-20T15:47:04.297Z,11.50
2023-04-20T15:49:40.733Z,11.50
2023-04-20T15:52:08.761Z,11.50
2023-04-20T15:54:55.177Z,11.50
2023-04-20T15:57:24.412Z,11.50
2023-04-20T15:59:55.117Z,11.50
2023-04-20T16:02:23.098Z,11.60
2023-04-20T16:04:51.163Z,11.60
2023-04-20T16:07:22.196Z,11.70
2023-04-20T16:09:53.273Z,11.70
2023-04-20T16:12:21.177Z,11.70
2023-04-20T16:14:51.821Z,11.60
2023-04-20T16:17:29.664Z,11.60
2023-04-20T16:20:06.144Z,11.70
2023-04-20T16:22:53.964Z,11.70
2023-04-20T16:25:28.389Z,11.70
2023-04-20T16:28:02.209Z,11.80
2023-04-20T16:30:34.341Z,11.70
2023-04-20T16:33:02.306Z,11.60
2023-04-20T16:35:30.425Z,11.50
2023-04-20T16:38:04.093Z,11.50
2023-04-20T16:40:42.493Z,11.50
2023-04-20T16:43:13.397Z,11.30
2023-04-20T16:45:42.707Z,11.30
2023-04-20T16:50:54.880Z,11.30
2023-04-20T16:53:28.758Z,11.20
2023-04-20T16:55:56.622Z,10.90
2023-04-20T16:58:24.604Z,10.90
2023-04-20T17:00:56.161Z,10.80
2023-04-20T17:03:27.346Z,10.70
2023-04-20T17:05:55.321Z,10.70
2023-04-20T17:08:30.560Z,10.70
2023-04-20T17:10:58.437Z,10.60
2023-04-20T17:13:29.050Z,10.60
2023-04-20T17:15:58.544Z,10.50
2023-04-20T17:18:26.505Z,10.30
2023-04-20T17:21:04.352Z,10.40
2023-04-20T17:23:34.556Z,10.30
2023-04-20T17:26:02.413Z,10.50
2023-04-20T17:28:30.532Z,10.70
2023-04-20T17:31:14.846Z,10.60
2023-04-20T17:33:43.366Z,10.60
2023-04-20T17:36:18.771Z,10.70
2023-04-20T17:38:46.671Z,10.80
2023-04-20T17:41:14.524Z,10.70
2023-04-20T17:43:58.418Z,10.60
2023-04-20T17:46:27.744Z,10.60
2023-04-20T17:48:58.159Z,10.50
2023-04-20T17:51:28.831Z,10.50
2023-04-20T17:53:56.685Z,10.60
2023-04-20T17:56:24.553Z,10.70
2023-04-20T17:58:58.327Z,10.70
2023-04-20T18:01:28.011Z,10.70
2023-04-20T18:03:59.132Z,10.80
2023-04-20T18:06:30.605Z,11.00
2023-04-20T18:09:01.541Z,11.20
2023-04-20T18:11:29.481Z,11.50
2023-04-20T18:14:01.058Z,11.60
2023-04-20T18:16:37.559Z,11.70
2023-04-20T18:19:14.248Z,11.80
2023-04-20T18:21:45.410Z,11.90
2023-04-20T18:24:16.208Z,11.80
2023-04-20T18:26:44.128Z,11.80
2023-04-20T18:29:12.084Z,11.90
2023-04-20T18:31:41.353Z,11.80
2023-04-20T18:34:11.480Z,11.60
2023-04-20T18:36:40.005Z,11.50
2023-04-20T18:39:16.256Z,11.50
2023-04-20T18:41:47.133Z,11.40
2023-04-20T18:44:15.065Z,11.40
2023-04-20T18:46:44.309Z,11.40
2023-04-20T18:49:15.876Z,11.60
2023-04-20T18:51:43.754Z,11.60
2023-04-20T18:54:11.586Z,11.50
2023-04-20T18:56:42.760Z,11.40
2023-04-20T18:59:13.378Z,11.20
2023-04-20T19:01:41.561Z,11.10
2023-04-20T19:04:19.962Z,11.00
2023-04-20T19:09:32.873Z,10.80
2023-04-20T19:12:01.430Z,10.70
2023-04-20T19:14:32.115Z,10.50
2023-04-20T19:17:11.797Z,10.50
2023-04-20T19:19:55.185Z,10.40
2023-04-20T19:22:26.080Z,10.30
2023-04-20T19:25:00.086Z,10.00
2023-04-20T19:27:33.847Z,9.90
2023-04-20T19:30:05.260Z,9.80
2023-04-20T19:32:33.277Z,9.90
2023-04-20T19:35:05.217Z,10.10
2023-04-20T19:37:35.664Z,10.30
2023-04-20T19:40:06.086Z,10.10
2023-04-20T19:42:33.946Z,10.20
2023-04-20T19:45:01.836Z,10.20
2023-04-20T19:47:36.526Z,10.20
2023-04-20T19:50:06.847Z,10.20
2023-04-20T19:52:35.289Z,10.10
2023-04-20T19:55:04.594Z,10.20
2023-04-20T19:57:32.567Z,10.20
2023-04-20T20:00:00.721Z,10.20
2023-04-20T20:02:45.462Z,10.20
2023-04-20T20:05:14.964Z,10.10
2023-04-20T20:07:46.090Z,10.20
2023-04-20T20:10:15.773Z,10.20
2023-04-20T20:12:43.871Z,10.10
2023-04-20T20:15:11.875Z,10.00
2023-04-20T20:17:47.565Z,10.10
2023-04-20T20:20:16.801Z,10.10
2023-04-20T20:22:48.328Z,10.00
2023-04-20T20:25:16.371Z,9.90
2023-04-20T20:27:44.712Z,9.70
2023-04-20T20:30:13.742Z,9.60
2023-04-20T20:32:41.888Z,9.60
2023-04-20T20:35:12.989Z,9.80
2023-04-20T20:37:45.152Z,9.80
2023-04-20T20:40:15.175Z,9.70
2023-04-20T20:42:47.663Z,9.70
2023-04-20T20:45:18.408Z,9.90
2023-04-20T20:47:46.704Z,9.80
2023-04-20T20:50:16.046Z,9.60
2023-04-20T20:52:45.412Z,9.60
2023-04-20T20:55:16.716Z,9.60
2023-04-20T20:57:49.629Z,9.60
2023-04-20T21:00:20.261Z,9.50
2023-04-20T21:02:54.412Z,9.70
2023-04-20T21:05:29.828Z,9.70
2023-04-20T21:08:05.567Z,9.60
2023-04-20T21:10:38.468Z,9.70
2023-04-20T21:13:07.160Z,9.70
2023-04-20T21:15:41.182Z,9.70
2023-04-20T21:18:12.924Z,9.70
2023-04-20T21:20:47.061Z,9.80
2023-04-20T21:23:27.908Z,9.80
2023-04-20T21:26:05.396Z,9.70
2023-04-20T21:28:39.173Z,9.70
2023-04-20T21:31:07.072Z,9.70
2023-04-20T21:33:40.729Z,9.80
2023-04-20T21:36:17.733Z,9.80
2023-04-20T21:38:46.986Z,9.70
2023-04-20T21:41:17.258Z,9.70
2023-04-20T21:43:45.509Z,9.70
2023-04-20T21:46:15.652Z,9.60
2023-04-20T21:48:43.765Z,9.60
2023-04-20T21:51:15.972Z,9.50
2023-04-20T21:53:43.856Z,9.60
2023-04-20T21:56:16.103Z,9.70
2023-04-20T21:58:43.974Z,9.60
2023-04-20T22:01:25.851Z,9.60
2023-04-20T22:03:57.372Z,9.70
2023-04-20T22:06:43.694Z,9.80
2023-04-20T22:09:11.707Z,9.60
2023-04-20T22:11:41.000Z,9.70
2023-04-20T22:14:14.765Z,9.70
2023-04-20T22:16:46.061Z,9.70
2023-04-20T22:19:17.566Z,9.80
2023-04-20T22:21:45.646Z,9.80
2023-04-20T22:24:22.880Z,9.80
2023-04-20T22:26:52.197Z,9.70
2023-04-20T22:29:20.219Z,9.60
2023-04-20T22:31:48.842Z,9.50
2023-04-20T22:34:16.756Z,9.60
2023-04-20T22:36:47.706Z,9.70
2023-04-20T22:39:15.801Z,9.90
2023-04-20T22:41:46.492Z,9.90
2023-04-20T22:44:17.983Z,9.90
2023-04-20T22:46:46.142Z,9.90
2023-04-20T22:49:14.964Z,9.70
2023-04-20T22:51:43.256Z,9.70
2023-04-20T22:54:17.361Z,9.70
2023-04-20T22:56:48.060Z,9.70
2023-04-20T22:59:17.515Z,9.70
2023-04-20T23:01:45.722Z,9.70
2023-04-20T23:04:18.565Z,9.70
2023-04-20T23:06:49.262Z,9.80
2023-04-20T23:09:20.650Z,9.70
2023-04-20T23:11:53.729Z,9.70
2023-04-20T23:14:23.739Z,9.80
2023-04-20T23:16:59.929Z,9.90
2023-04-20T23:19:33.038Z,10.00
2023-04-20T23:22:04.397Z,10.10
2023-04-20T23:24:32.259Z,9.80
2023-04-20T23:27:06.380Z,10.00
2023-04-20T23:29:38.005Z,10.00
2023-04-20T23:32:06.268Z,10.20
2023-04-20T23:34:36.989Z,10.40
2023-04-20T23:37:10.751Z,10.50
2023-04-20T23:39:44.748Z,10.60
2023-04-20T23:42:12.608Z,10.70
2023-04-20T23:44:41.843Z,11.00
2023-04-20T23:47:09.696Z,11.40
2023-04-20T23:49:40.740Z,11.70
2023-04-20T23:52:08.701Z,12.00
2023-04-20T23:54:45.973Z,12.20
2023-04-20T23:57:13.845Z,12.20
2023-04-20T23:59:48.598Z,12.20
